Time;durP1;ratioP1;P1;durP2;ratioP2;P2;SDS_P1;SDS_P2;PMS_P1;PMS_P2;Temp;Humidity;BMP_temperature;BMP_pressure;BME280_temperature;BME280_humidity;BME280_pressure;Samples;Min_cycle;Max_cycle;Signal;HPM_P1;HPM_P2
2023/04/10 00:00:05;;;;;;;;;;;10.00;99.90;;;;;;5042834;28;19908;-78
2023/04/10 00:02:31;;;;;;;;;;;10.00;99.90;;;;;;5060133;28;20336;-78
2023/04/10 00:04:57;;;;;;;;;;;10.00;99.90;;;;;;5060122;28;19952;-78
2023/04/10 00:07:22;;;;;;;;;;;9.90;99.90;;;;;;5058896;28;19909;-79
2023/04/10 00:09:47;;;;;;;;;;;10.20;99.90;;;;;;5059963;28;19913;-79
2023/04/10 00:12:14;;;;;;;;;;;10.00;99.90;;;;;;5042310;28;19916;-78
2023/04/10 00:14:40;;;;;;;;;;;9.80;99.90;;;;;;5060272;28;19931;-78
2023/04/10 00:17:05;;;;;;;;;;;9.80;99.90;;;;;;5042134;28;19909;-78
2023/04/10 00:19:31;;;;;;;;;;;9.90;99.90;;;;;;5042193;28;19912;-79
2023/04/10 00:21:56;;;;;;;;;;;9.80;99.90;;;;;;5060390;28;19909;-78
2023/04/10 00:24:22;;;;;;;;;;;9.70;99.90;;;;;;5060362;28;19908;-79
2023/04/10 00:26:47;;;;;;;;;;;9.70;99.90;;;;;;5059891;28;20379;-79
2023/04/10 00:29:13;;;;;;;;;;;9.70;99.90;;;;;;5059656;28;19958;-78
2023/04/10 00:31:38;;;;;;;;;;;10.40;99.90;;;;;;5042759;28;19925;-78
2023/04/10 00:34:04;;;;;;;;;;;9.70;99.90;;;;;;5059448;28;19913;-79
2023/04/10 00:36:30;;;;;;;;;;;9.60;99.90;;;;;;5042699;28;20401;-78
2023/04/10 00:38:56;;;;;;;;;;;9.60;99.90;;;;;;5060572;28;19997;-78
2023/04/10 00:41:22;;;;;;;;;;;9.60;99.90;;;;;;5060548;28;19916;-79
2023/04/10 00:43:48;;;;;;;;;;;9.60;99.90;;;;;;5056935;28;19912;-78
2023/04/10 00:46:14;;;;;;;;;;;9.60;99.90;;;;;;5056620;28;19916;-79
2023/04/10 00:48:40;;;;;;;;;;;9.50;99.90;;;;;;5039392;28;20019;-79
2023/04/10 00:51:06;;;;;;;;;;;9.50;99.90;;;;;;5041475;28;20380;-80
2023/04/10 00:53:31;;;;;;;;;;;9.50;99.90;;;;;;5061750;28;19923;-80
2023/04/10 00:55:57;;;;;;;;;;;9.50;99.90;;;;;;5061114;28;19913;-79
2023/04/10 00:58:23;;;;;;;;;;;10.50;99.90;;;;;;5057128;28;20007;-79
2023/04/10 01:00:49;;;;;;;;;;;10.70;99.90;;;;;;5057637;28;19948;-79
2023/04/10 01:03:16;;;;;;;;;;;9.40;99.90;;;;;;5039478;28;19913;-79
2023/04/10 01:05:57;;;;;;;;;;;9.40;99.90;;;;;;5040328;28;19961;-79
2023/04/10 01:08:38;;;;;;;;;;;9.40;99.90;;;;;;5057365;28;20004;-79
2023/04/10 01:11:05;;;;;;;;;;;10.50;99.90;;;;;;5042365;28;19913;-79
2023/04/10 01:13:34;;;;;;;;;;;9.30;99.90;;;;;;5042504;28;20395;-79
2023/04/10 01:16:02;;;;;;;;;;;9.30;99.90;;;;;;5059145;28;19909;-79
2023/04/10 01:18:47;;;;;;;;;;;9.30;99.90;;;;;;5061517;28;19909;-80
2023/04/10 01:21:14;;;;;;;;;;;9.30;99.90;;;;;;5042583;28;19909;-79
2023/04/10 01:23:53;;;;;;;;;;;9.20;99.90;;;;;;5042610;28;19909;-80
2023/04/10 01:26:29;;;;;;;;;;;9.20;99.90;;;;;;5060190;28;19909;-79
2023/04/10 01:29:05;;;;;;;;;;;9.10;99.90;;;;;;5060718;28;19893;-79
2023/04/10 01:31:49;;;;;;;;;;;9.10;99.90;;;;;;5060782;28;19936;-79
2023/04/10 01:34:19;;;;;;;;;;;9.00;99.90;;;;;;5060787;28;19950;-79
2023/04/10 01:36:50;;;;;;;;;;;9.00;99.90;;;;;;5059862;28;19909;-79
2023/04/10 01:39:19;;;;;;;;;;;9.60;99.90;;;;;;5061590;28;19909;-79
2023/04/10 01:41:45;;;;;;;;;;;9.00;99.90;;;;;;5041877;28;20392;-80
2023/04/10 01:44:13;;;;;;;;;;;9.00;99.90;;;;;;5042142;28;19908;-80
2023/04/10 01:46:39;;;;;;;;;;;8.90;99.90;;;;;;5042881;28;19908;-80
2023/04/10 01:49:05;;;;;;;;;;;8.90;99.90;;;;;;5042448;28;19916;-80
2023/04/10 01:51:31;;;;;;;;;;;8.90;99.90;;;;;;5041178;28;19916;-80
2023/04/10 01:53:58;;;;;;;;;;;8.90;99.90;;;;;;5042028;28;20006;-79
2023/04/10 01:56:23;;;;;;;;;;;8.90;99.90;;;;;;5056376;28;19913;-79
2023/04/10 01:58:49;;;;;;;;;;;10.90;99.90;;;;;;5058566;28;19916;-80
2023/04/10 02:01:21;;;;;;;;;;;8.90;99.90;;;;;;5059179;28;20423;-79
2023/04/10 02:03:46;;;;;;;;;;;8.80;99.90;;;;;;5041255;28;19979;-80
2023/04/10 02:06:31;;;;;;;;;;;8.90;99.90;;;;;;5058920;28;20451;-79
2023/04/10 02:09:14;;;;;;;;;;;8.80;99.90;;;;;;5057609;28;20284;-80
2023/04/10 02:12:00;;;;;;;;;;;8.80;99.90;;;;;;5059510;28;19975;-79
2023/04/10 02:14:29;;;;;;;;;;;8.70;99.90;;;;;;5040659;28;19916;-79
2023/04/10 02:16:55;;;;;;;;;;;8.70;99.90;;;;;;5059447;28;19909;-79
2023/04/10 02:19:22;;;;;;;;;;;8.70;99.90;;;;;;5044432;28;19932;-79
2023/04/10 02:21:48;;;;;;;;;;;8.70;99.90;;;;;;5061435;28;19913;-79
2023/04/10 02:24:13;;;;;;;;;;;8.60;99.90;;;;;;5043359;28;19931;-79
2023/04/10 02:26:49;;;;;;;;;;;9.50;99.90;;;;;;5059461;28;20003;-79
2023/04/10 02:29:14;;;;;;;;;;;8.60;99.90;;;;;;5058828;28;19916;-79
2023/04/10 02:31:40;;;;;;;;;;;8.50;99.90;;;;;;5040493;28;19909;-79
2023/04/10 02:34:06;;;;;;;;;;;8.50;99.90;;;;;;5040202;28;19915;-79
2023/04/10 02:36:31;;;;;;;;;;;8.60;99.90;;;;;;5056956;28;20372;-79
2023/04/10 02:38:57;;;;;;;;;;;9.70;99.90;;;;;;5057110;28;20286;-79
2023/04/10 02:41:23;;;;;;;;;;;8.50;99.90;;;;;;5057691;28;19944;-79
2023/04/10 02:43:48;;;;;;;;;;;8.50;99.90;;;;;;5038793;28;20303;-79
2023/04/10 02:46:14;;;;;;;;;;;8.50;99.90;;;;;;5038697;28;19916;-78
2023/04/10 02:48:39;;;;;;;;;;;8.50;99.90;;;;;;5056060;28;19932;-78
2023/04/10 02:51:05;;;;;;;;;;;8.40;99.90;;;;;;5057246;28;19917;-79
2023/04/10 02:53:32;;;;;;;;;;;8.40;99.90;;;;;;5057303;28;19947;-79
2023/04/10 02:55:57;;;;;;;;;;;8.40;99.90;;;;;;5058014;28;19983;-79
2023/04/10 02:58:22;;;;;;;;;;;8.40;99.90;;;;;;5059233;28;19913;-79
2023/04/10 03:00:49;;;;;;;;;;;8.40;99.90;;;;;;5040544;28;19908;-79
2023/04/10 03:03:15;;;;;;;;;;;8.30;99.90;;;;;;5039634;28;19948;-80
2023/04/10 03:05:41;;;;;;;;;;;8.30;99.90;;;;;;5057332;28;19909;-80
2023/04/10 03:08:06;;;;;;;;;;;8.30;99.90;;;;;;5057648;28;19915;-80
2023/04/10 03:10:32;;;;;;;;;;;8.30;99.90;;;;;;5039878;28;19919;-79
2023/04/10 03:12:57;;;;;;;;;;;8.30;99.90;;;;;;5039172;28;19913;-79
2023/04/10 03:15:23;;;;;;;;;;;10.00;99.90;;;;;;5057313;28;20432;-79
2023/04/10 03:17:48;;;;;;;;;;;8.20;99.90;;;;;;5056258;28;19909;-79
2023/04/10 03:20:14;;;;;;;;;;;8.20;99.90;;;;;;5057698;28;19959;-79
2023/04/10 03:22:40;;;;;;;;;;;8.20;99.90;;;;;;5039121;28;20319;-79
2023/04/10 03:25:06;;;;;;;;;;;8.20;99.90;;;;;;5040009;28;19923;-79
2023/04/10 03:27:33;;;;;;;;;;;8.10;99.90;;;;;;5038771;28;20319;-79
2023/04/10 03:29:59;;;;;;;;;;;8.20;99.90;;;;;;5055809;28;19919;-79
2023/04/10 03:32:26;;;;;;;;;;;8.20;99.90;;;;;;5039511;28;19909;-79
2023/04/10 03:34:52;;;;;;;;;;;8.20;99.90;;;;;;5056877;28;19955;-79
2023/04/10 03:37:18;;;;;;;;;;;8.20;99.90;;;;;;5056758;28;19946;-79
2023/04/10 03:39:44;;;;;;;;;;;8.10;99.90;;;;;;5055260;28;19909;-79
2023/04/10 03:42:10;;;;;;;;;;;8.20;99.90;;;;;;5038611;28;19931;-79
2023/04/10 03:44:36;;;;;;;;;;;8.20;99.90;;;;;;5038776;28;20376;-79
2023/04/10 03:47:02;;;;;;;;;;;8.20;99.90;;;;;;5055506;28;20372;-79
2023/04/10 03:49:27;;;;;;;;;;;8.20;99.90;;;;;;5056941;28;19913;-79
2023/04/10 03:51:53;;;;;;;;;;;8.20;99.90;;;;;;5038702;28;20361;-79
2023/04/10 03:54:18;;;;;;;;;;;8.20;99.90;;;;;;5040305;28;19956;-79
2023/04/10 03:56:44;;;;;;;;;;;8.10;99.90;;;;;;5039912;28;20288;-79
2023/04/10 03:59:09;;;;;;;;;;;8.10;99.90;;;;;;5058240;28;19948;-79
2023/04/10 04:01:35;;;;;;;;;;;8.10;99.90;;;;;;5039884;28;19924;-79
2023/04/10 04:04:00;;;;;;;;;;;8.20;99.90;;;;;;5040735;28;20324;-80
2023/04/10 04:06:26;;;;;;;;;;;8.20;99.90;;;;;;5058010;28;19909;-79
2023/04/10 04:08:51;;;;;;;;;;;8.20;99.90;;;;;;5058582;28;20023;-79
2023/04/10 04:11:17;;;;;;;;;;;10.70;99.90;;;;;;5039834;28;19917;-79
2023/04/10 04:13:42;;;;;;;;;;;8.90;99.90;;;;;;5057338;28;20429;-79
2023/04/10 04:16:09;;;;;;;;;;;8.20;99.90;;;;;;5057574;28;20007;-79
2023/04/10 04:18:34;;;;;;;;;;;8.20;99.90;;;;;;5058335;28;20342;-79
2023/04/10 04:21:00;;;;;;;;;;;8.10;99.90;;;;;;5061887;28;19944;-79
2023/04/10 04:23:25;;;;;;;;;;;8.10;99.90;;;;;;5064556;28;19909;-79
2023/04/10 04:25:53;;;;;;;;;;;8.20;99.90;;;;;;5064523;28;20367;-79
2023/04/10 04:28:18;;;;;;;;;;;8.10;99.90;;;;;;5042739;28;19931;-78
2023/04/10 04:30:44;;;;;;;;;;;8.20;99.90;;;;;;5043055;28;19913;-78
2023/04/10 04:33:09;;;;;;;;;;;8.30;99.90;;;;;;5062537;28;19962;-79
2023/04/10 04:35:35;;;;;;;;;;;8.20;99.90;;;;;;5064691;28;19959;-79
2023/04/10 04:38:00;;;;;;;;;;;8.20;99.90;;;;;;5045759;28;19948;-78
2023/04/10 04:40:26;;;;;;;;;;;8.20;99.90;;;;;;5062337;28;19975;-79
2023/04/10 04:42:51;;;;;;;;;;;8.20;99.90;;;;;;5044517;28;19932;-79
2023/04/10 04:45:17;;;;;;;;;;;8.10;99.90;;;;;;5062791;28;19916;-79
2023/04/10 04:47:42;;;;;;;;;;;8.10;99.90;;;;;;5044582;28;19909;-79
2023/04/10 04:50:08;;;;;;;;;;;8.10;99.90;;;;;;5061530;28;19913;-79
2023/04/10 04:52:34;;;;;;;;;;;8.10;99.90;;;;;;5061736;28;19912;-79
2023/04/10 04:54:59;;;;;;;;;;;8.20;99.90;;;;;;5044424;28;19991;-79
2023/04/10 04:57:25;;;;;;;;;;;8.20;99.90;;;;;;5061794;28;19974;-79
2023/04/10 04:59:50;;;;;;;;;;;8.20;99.90;;;;;;5061966;28;19963;-79
2023/04/10 05:02:17;;;;;;;;;;;8.60;99.90;;;;;;5061447;28;19923;-79
2023/04/10 05:04:43;;;;;;;;;;;8.20;99.90;;;;;;5043930;28;20395;-79
2023/04/10 05:07:09;;;;;;;;;;;8.20;99.90;;;;;;5044038;28;19909;-79
2023/04/10 05:09:34;;;;;;;;;;;8.20;99.90;;;;;;5060239;28;19909;-79
2023/04/10 05:12:00;;;;;;;;;;;8.20;99.90;;;;;;5061455;28;20011;-79
2023/04/10 05:14:25;;;;;;;;;;;8.20;99.90;;;;;;5043104;28;19909;-79
2023/04/10 05:16:51;;;;;;;;;;;8.20;99.90;;;;;;5061502;28;19940;-79
2023/04/10 05:19:16;;;;;;;;;;;8.20;99.90;;;;;;5042829;28;19958;-79
2023/04/10 05:21:42;;;;;;;;;;;8.70;99.90;;;;;;5059477;28;19944;-79
2023/04/10 05:24:08;;;;;;;;;;;8.20;99.90;;;;;;5061143;28;19939;-79
2023/04/10 05:26:33;;;;;;;;;;;8.20;99.90;;;;;;5059048;28;19915;-80
2023/04/10 05:28:59;;;;;;;;;;;8.20;99.90;;;;;;5061195;28;19909;-80
2023/04/10 05:31:24;;;;;;;;;;;8.30;99.90;;;;;;5043007;28;19913;-80
2023/04/10 05:33:50;;;;;;;;;;;8.30;99.90;;;;;;5043909;28;20007;-80
2023/04/10 05:36:17;;;;;;;;;;;8.30;99.90;;;;;;5060232;28;19908;-80
2023/04/10 05:38:42;;;;;;;;;;;9.80;99.90;;;;;;5042996;28;19912;-80
2023/04/10 05:41:08;;;;;;;;;;;8.40;99.90;;;;;;5061207;28;20015;-79
2023/04/10 05:43:33;;;;;;;;;;;8.50;99.90;;;;;;5063720;28;20417;-79
2023/04/10 05:45:59;;;;;;;;;;;8.90;99.90;;;;;;5060596;28;19909;-79
2023/04/10 05:48:25;;;;;;;;;;;8.60;99.90;;;;;;5057828;28;19962;-78
2023/04/10 05:50:51;;;;;;;;;;;8.60;99.90;;;;;;5056218;28;19913;-78
2023/04/10 05:53:17;;;;;;;;;;;8.60;99.90;;;;;;5055903;28;19940;-78
2023/04/10 05:55:42;;;;;;;;;;;8.60;99.90;;;;;;5041637;28;20287;-79
2023/04/10 05:58:08;;;;;;;;;;;10.80;99.90;;;;;;5058412;28;19908;-79
2023/04/10 06:00:33;;;;;;;;;;;8.70;99.90;;;;;;5059935;28;19931;-80
2023/04/10 06:02:59;;;;;;;;;;;8.80;99.90;;;;;;5040764;28;19916;-79
2023/04/10 06:05:25;;;;;;;;;;;8.80;99.90;;;;;;5059504;28;19909;-79
2023/04/10 06:07:50;;;;;;;;;;;8.80;99.90;;;;;;5041099;28;19916;-79
2023/04/10 06:10:16;;;;;;;;;;;8.90;99.90;;;;;;5040812;28;19913;-79
2023/04/10 06:12:42;;;;;;;;;;;8.90;99.90;;;;;;5040950;28;19912;-79
2023/04/10 06:15:07;;;;;;;;;;;8.90;99.90;;;;;;5058188;28;19948;-79
2023/04/10 06:17:33;;;;;;;;;;;8.90;99.90;;;;;;5058181;28;20257;-79
2023/04/10 06:19:59;;;;;;;;;;;8.90;99.90;;;;;;5058728;28;19948;-79
2023/04/10 06:22:25;;;;;;;;;;;9.00;99.90;;;;;;5041015;28;19908;-79
2023/04/10 06:24:51;;;;;;;;;;;9.00;99.90;;;;;;5059479;28;20394;-78
2023/04/10 06:27:16;;;;;;;;;;;9.10;99.90;;;;;;5058283;28;19967;-79
2023/04/10 06:29:42;;;;;;;;;;;9.10;99.90;;;;;;5056697;28;19913;-79
2023/04/10 06:32:07;;;;;;;;;;;10.40;99.90;;;;;;5058296;28;19928;-79
2023/04/10 06:34:33;;;;;;;;;;;11.20;99.90;;;;;;5057391;28;19952;-79
2023/04/10 06:36:58;;;;;;;;;;;9.20;99.90;;;;;;5040721;28;20343;-79
2023/04/10 06:39:24;;;;;;;;;;;9.20;99.90;;;;;;5039614;28;20007;-79
2023/04/10 06:41:49;;;;;;;;;;;9.20;99.90;;;;;;5036383;28;19915;-78
2023/04/10 06:44:15;;;;;;;;;;;9.30;99.90;;;;;;5054573;28;20360;-78
2023/04/10 06:46:40;;;;;;;;;;;9.40;99.90;;;;;;5054740;28;19909;-79
2023/04/10 06:49:06;;;;;;;;;;;9.40;99.90;;;;;;5037067;28;19908;-78
2023/04/10 06:51:32;;;;;;;;;;;9.50;99.90;;;;;;5053653;28;19920;-79
2023/04/10 06:53:57;;;;;;;;;;;9.50;99.90;;;;;;5054969;28;20419;-79
2023/04/10 06:56:24;;;;;;;;;;;9.60;99.90;;;;;;5054864;28;20001;-79
2023/04/10 06:58:49;;;;;;;;;;;9.70;99.90;;;;;;5037657;28;20387;-79
2023/04/10 07:01:16;;;;;;;;;;;10.10;99.90;;;;;;5037702;28;19913;-79
2023/04/10 07:03:42;;;;;;;;;;;9.80;99.90;;;;;;5037139;28;19909;-75
2023/04/10 07:06:09;;;;;;;;;;;9.80;99.90;;;;;;5053895;28;20031;-77
2023/04/10 07:08:34;;;;;;;;;;;9.90;99.90;;;;;;5036145;28;20363;-76
2023/04/10 07:11:00;;;;;;;;;;;10.00;99.90;;;;;;5054150;28;19913;-78
2023/04/10 07:13:25;;;;;;;;;;;10.70;99.90;;;;;;5052797;28;20364;-78
2023/04/10 07:15:51;;;;;;;;;;;10.20;99.90;;;;;;5035911;28;20284;-77
2023/04/10 07:18:16;;;;;;;;;;;10.20;99.90;;;;;;5052971;28;19909;-76
2023/04/10 07:20:42;;;;;;;;;;;10.40;99.90;;;;;;5054545;28;20012;-76
2023/04/10 07:23:07;;;;;;;;;;;10.50;99.90;;;;;;5036078;28;19913;-74
2023/04/10 07:25:32;;;;;;;;;;;10.60;99.90;;;;;;5054008;28;20034;-77
2023/04/10 07:27:58;;;;;;;;;;;10.70;99.90;;;;;;5035795;28;19999;-77
2023/04/10 07:30:23;;;;;;;;;;;10.80;99.90;;;;;;5035646;28;19913;-76
2023/04/10 07:32:49;;;;;;;;;;;10.90;99.90;;;;;;5035968;28;20025;-76
2023/04/10 07:35:14;;;;;;;;;;;11.00;99.90;;;;;;5035975;28;20011;-77
2023/04/10 07:37:40;;;;;;;;;;;11.10;99.90;;;;;;5055116;28;19942;-77
2023/04/10 07:40:07;;;;;;;;;;;11.20;99.90;;;;;;5054353;28;19908;-77
2023/04/10 07:42:32;;;;;;;;;;;11.40;99.90;;;;;;5053836;28;19916;-77
2023/04/10 07:44:58;;;;;;;;;;;11.60;99.90;;;;;;5054248;28;19913;-77
2023/04/10 07:47:23;;;;;;;;;;;11.60;99.90;;;;;;5053793;28;20328;-76
2023/04/10 07:49:49;;;;;;;;;;;11.60;99.90;;;;;;5052368;28;19937;-75
2023/04/10 07:52:15;;;;;;;;;;;11.80;99.90;;;;;;5035739;28;19909;-75
2023/04/10 07:54:40;;;;;;;;;;;11.80;99.90;;;;;;5057393;28;19908;-75
2023/04/10 07:57:06;;;;;;;;;;;11.80;99.90;;;;;;5057193;28;20069;-75
2023/04/10 07:59:31;;;;;;;;;;;11.80;99.90;;;;;;5038585;28;19915;-76
2023/04/10 08:01:56;;;;;;;;;;;11.80;99.90;;;;;;5055380;28;19970;-75
2023/04/10 08:04:22;;;;;;;;;;;11.80;99.90;;;;;;5057000;28;19913;-76
2023/04/10 08:06:48;;;;;;;;;;;11.80;99.90;;;;;;5056387;28;20003;-75
2023/04/10 08:09:14;;;;;;;;;;;11.80;99.90;;;;;;5039125;28;19909;-75
2023/04/10 08:11:40;;;;;;;;;;;11.90;99.90;;;;;;5057070;28;19912;-76
2023/04/10 08:14:05;;;;;;;;;;;12.00;99.90;;;;;;5057133;28;19916;-75
2023/04/10 08:16:35;;;;;;;;;;;12.10;99.90;;;;;;5055774;28;19909;-75
2023/04/10 08:19:00;;;;;;;;;;;12.30;99.90;;;;;;5039253;28;19960;-76
2023/04/10 08:21:27;;;;;;;;;;;12.50;99.90;;;;;;5057106;28;19917;-75
2023/04/10 08:23:53;;;;;;;;;;;12.60;99.90;;;;;;5055924;28;19955;-76
2023/04/10 08:26:19;;;;;;;;;;;12.60;99.90;;;;;;5056832;28;19909;-76
2023/04/10 08:28:48;;;;;;;;;;;12.70;99.90;;;;;;5039068;28;19978;-76
2023/04/10 08:31:13;;;;;;;;;;;12.70;99.90;;;;;;5038883;28;19936;-76
2023/04/10 08:33:39;;;;;;;;;;;12.70;99.90;;;;;;5055445;28;19909;-75
2023/04/10 08:36:05;;;;;;;;;;;12.70;99.90;;;;;;5057269;28;19916;-76
2023/04/10 08:38:30;;;;;;;;;;;12.70;99.90;;;;;;5039503;28;20284;-75
2023/04/10 08:40:56;;;;;;;;;;;12.60;99.90;;;;;;5056699;28;19909;-75
2023/04/10 08:43:22;;;;;;;;;;;12.70;99.90;;;;;;5056680;28;19913;-76
2023/04/10 08:45:47;;;;;;;;;;;12.60;99.90;;;;;;5056425;28;19964;-76
2023/04/10 08:48:13;;;;;;;;;;;12.70;99.90;;;;;;5056372;28;20062;-75
2023/04/10 08:50:40;;;;;;;;;;;12.50;99.90;;;;;;5056965;28;19913;-76
2023/04/10 08:53:09;;;;;;;;;;;12.50;99.90;;;;;;5056553;28;19909;-75
2023/04/10 08:55:35;;;;;;;;;;;12.60;99.90;;;;;;5038522;28;20356;-75
2023/04/10 08:58:01;;;;;;;;;;;12.60;99.90;;;;;;5056210;28;19954;-75
2023/04/10 09:00:27;;;;;;;;;;;12.70;99.90;;;;;;5056265;28;19909;-76
2023/04/10 09:02:56;;;;;;;;;;;12.70;99.90;;;;;;5054915;28;20007;-76
2023/04/10 09:05:24;;;;;;;;;;;12.70;99.90;;;;;;5037575;28;19956;-76
2023/04/10 09:07:49;;;;;;;;;;;12.80;99.90;;;;;;5038250;28;19909;-75
2023/04/10 09:10:15;;;;;;;;;;;12.70;99.90;;;;;;5055992;28;19920;-75
2023/04/10 09:12:45;;;;;;;;;;;12.70;99.90;;;;;;5056001;28;19909;-75
2023/04/10 09:15:11;;;;;;;;;;;12.70;99.90;;;;;;5038049;28;19909;-75
2023/04/10 09:17:36;;;;;;;;;;;12.70;99.90;;;;;;5055912;28;19931;-75
2023/04/10 09:20:02;;;;;;;;;;;12.70;99.90;;;;;;5054606;28;19916;-76
2023/04/10 09:22:30;;;;;;;;;;;12.80;99.90;;;;;;5056080;28;19920;-76
2023/04/10 09:24:55;;;;;;;;;;;14.40;99.90;;;;;;5055890;28;20007;-75
2023/04/10 09:27:27;;;;;;;;;;;12.80;99.90;;;;;;5037895;28;19951;-75
2023/04/10 09:29:52;;;;;;;;;;;12.80;99.90;;;;;;5054386;28;19912;-76
2023/04/10 09:32:36;;;;;;;;;;;12.90;99.90;;;;;;5054282;28;19917;-75
2023/04/10 09:35:03;;;;;;;;;;;12.90;99.90;;;;;;5056228;28;20390;-75
2023/04/10 09:37:33;;;;;;;;;;;13.00;99.90;;;;;;5037616;28;19909;-75
2023/04/10 09:39:58;;;;;;;;;;;13.10;99.90;;;;;;5054357;28;19912;-76
2023/04/10 09:42:31;;;;;;;;;;;13.20;99.90;;;;;;5055448;28;19995;-76
2023/04/10 09:44:57;;;;;;;;;;;13.20;99.90;;;;;;5055463;28;19916;-76
2023/04/10 09:47:23;;;;;;;;;;;13.30;99.90;;;;;;5055600;28;19913;-76
2023/04/10 09:49:51;;;;;;;;;;;13.50;99.90;;;;;;5055235;28;19923;-76
2023/04/10 09:52:27;;;;;;;;;;;13.60;99.90;;;;;;5055330;28;19909;-76
2023/04/10 09:55:15;;;;;;;;;;;13.50;99.90;;;;;;5054012;28;19915;-75
2023/04/10 09:57:41;;;;;;;;;;;13.70;99.90;;;;;;5054993;28;19916;-76
2023/04/10 10:00:08;;;;;;;;;;;13.70;99.90;;;;;;5055127;28;19908;-75
2023/04/10 10:02:35;;;;;;;;;;;13.80;99.90;;;;;;5037027;28;19917;-75
2023/04/10 10:05:01;;;;;;;;;;;13.90;99.90;;;;;;5054982;28;20330;-76
2023/04/10 10:07:28;;;;;;;;;;;14.00;99.90;;;;;;5054899;28;19908;-75
2023/04/10 10:09:54;;;;;;;;;;;14.10;99.90;;;;;;5054824;28;20268;-75
2023/04/10 10:12:28;;;;;;;;;;;14.20;99.90;;;;;;5054862;28;19916;-75
2023/04/10 10:15:18;;;;;;;;;;;14.20;99.90;;;;;;5055501;28;20373;-75
2023/04/10 10:17:56;;;;;;;;;;;14.30;99.90;;;;;;5035889;28;19909;-75
2023/04/10 10:20:23;;;;;;;;;;;14.40;99.90;;;;;;5036832;28;20000;-75
2023/04/10 10:22:49;;;;;;;;;;;14.40;99.90;;;;;;5053485;28;20344;-76
2023/04/10 10:25:15;;;;;;;;;;;14.50;99.90;;;;;;5054614;28;19909;-75
2023/04/10 10:27:40;;;;;;;;;;;14.70;99.90;;;;;;5054516;28;19916;-75
2023/04/10 10:30:08;;;;;;;;;;;14.60;99.90;;;;;;5054541;28;19913;-75
2023/04/10 10:32:34;;;;;;;;;;;14.80;99.90;;;;;;5054457;28;19909;-75
2023/04/10 10:35:01;;;;;;;;;;;14.80;99.90;;;;;;5036557;28;19909;-76
2023/04/10 10:37:27;;;;;;;;;;;14.90;99.90;;;;;;5054406;28;19909;-76
2023/04/10 10:40:11;;;;;;;;;;;15.00;99.90;;;;;;5036522;28;19962;-76
2023/04/10 10:42:44;;;;;;;;;;;15.00;99.90;;;;;;5054310;28;19909;-75
2023/04/10 10:45:17;;;;;;;;;;;15.00;99.90;;;;;;5036312;28;19909;-75
2023/04/10 10:47:44;;;;;;;;;;;15.00;99.90;;;;;;5036246;28;19909;-76
2023/04/10 10:50:10;;;;;;;;;;;15.10;99.90;;;;;;5036248;28;20377;-75
2023/04/10 10:52:35;;;;;;;;;;;15.40;99.90;;;;;;5052794;28;19909;-75
2023/04/10 10:55:21;;;;;;;;;;;15.60;99.90;;;;;;5054174;28;19909;-75
2023/04/10 10:58:07;;;;;;;;;;;15.70;99.90;;;;;;5053888;28;19916;-75
2023/04/10 11:00:50;;;;;;;;;;;15.80;99.10;;;;;;5054329;28;19913;-75
2023/04/10 11:03:16;;;;;;;;;;;16.00;99.20;;;;;;5054039;28;19928;-75
2023/04/10 11:05:55;;;;;;;;;;;16.10;99.10;;;;;;5053963;28;19908;-75
2023/04/10 11:08:34;;;;;;;;;;;16.20;98.20;;;;;;5053859;28;19960;-75
2023/04/10 11:11:04;;;;;;;;;;;16.40;98.20;;;;;;5052510;28;19913;-75
2023/04/10 11:13:30;;;;;;;;;;;16.50;97.90;;;;;;5053681;28;19909;-75
2023/04/10 11:15:56;;;;;;;;;;;16.50;97.40;;;;;;5053814;28;19908;-75
2023/04/10 11:18:40;;;;;;;;;;;16.50;97.10;;;;;;5053668;28;20288;-75
2023/04/10 11:21:10;;;;;;;;;;;16.60;97.50;;;;;;5052472;28;20004;-75
2023/04/10 11:23:36;;;;;;;;;;;16.70;97.30;;;;;;5053776;28;20287;-75
2023/04/10 11:26:02;;;;;;;;;;;16.80;96.50;;;;;;5035796;28;19916;-75
2023/04/10 11:28:30;;;;;;;;;;;16.80;96.80;;;;;;5053170;28;19912;-75
2023/04/10 11:31:12;;;;;;;;;;;17.00;96.90;;;;;;5052225;28;19913;-75
2023/04/10 11:33:37;;;;;;;;;;;17.20;96.60;;;;;;5054240;28;19916;-75
2023/04/10 11:36:03;;;;;;;;;;;17.30;97.40;;;;;;5053613;28;19908;-77
2023/04/10 11:38:29;;;;;;;;;;;17.60;97.20;;;;;;5052312;28;19948;-75
2023/04/10 11:40:56;;;;;;;;;;;17.70;95.70;;;;;;5054170;28;19952;-75
2023/04/10 11:43:21;;;;;;;;;;;17.60;94.80;;;;;;5035613;28;20437;-75
2023/04/10 11:45:47;;;;;;;;;;;17.60;94.80;;;;;;5053636;28;19912;-75
2023/04/10 11:48:13;;;;;;;;;;;17.70;94.80;;;;;;5053454;28;19916;-75
2023/04/10 11:50:39;;;;;;;;;;;17.70;94.50;;;;;;5053437;28;19913;-75
2023/04/10 11:53:16;;;;;;;;;;;17.60;94.10;;;;;;5053501;28;19915;-75
2023/04/10 11:55:41;;;;;;;;;;;17.50;94.30;;;;;;5035479;28;19909;-75
2023/04/10 11:58:22;;;;;;;;;;;17.50;94.30;;;;;;5053358;28;19916;-75
2023/04/10 12:00:57;;;;;;;;;;;17.50;94.20;;;;;;5053792;28;19909;-75
2023/04/10 12:03:32;;;;;;;;;;;17.40;94.10;;;;;;5053296;28;19928;-75
2023/04/10 12:05:57;;;;;;;;;;;17.30;94.20;;;;;;5051894;28;19963;-75
2023/04/10 12:08:30;;;;;;;;;;;17.30;93.90;;;;;;5053173;28;19913;-75
2023/04/10 12:10:55;;;;;;;;;;;17.30;94.50;;;;;;5035807;28;19951;-75
2023/04/10 12:13:24;;;;;;;;;;;17.20;94.70;;;;;;5035777;28;19909;-75
2023/04/10 12:15:50;;;;;;;;;;;17.20;95.20;;;;;;5053414;28;20020;-75
2023/04/10 12:18:16;;;;;;;;;;;17.10;94.50;;;;;;5053312;28;19944;-75
2023/04/10 12:20:43;;;;;;;;;;;17.10;95.10;;;;;;5035292;28;19908;-75
2023/04/10 12:23:09;;;;;;;;;;;17.00;94.50;;;;;;5052949;28;19920;-75
2023/04/10 12:25:35;;;;;;;;;;;16.80;95.00;;;;;;5035292;28;19908;-75
2023/04/10 12:28:00;;;;;;;;;;;16.80;95.30;;;;;;5051990;28;19908;-75
2023/04/10 12:30:26;;;;;;;;;;;16.70;95.80;;;;;;5035192;28;20403;-75
2023/04/10 12:32:55;;;;;;;;;;;16.80;96.00;;;;;;5052015;28;19936;-75
2023/04/10 12:35:36;;;;;;;;;;;16.70;95.70;;;;;;5053594;28;19992;-76
2023/04/10 12:38:02;;;;;;;;;;;16.70;96.20;;;;;;5036168;28;19909;-75
2023/04/10 12:40:27;;;;;;;;;;;16.50;96.00;;;;;;5055196;28;20323;-75
2023/04/10 12:42:53;;;;;;;;;;;16.40;95.90;;;;;;5056685;28;19909;-76
2023/04/10 12:45:19;;;;;;;;;;;16.30;96.80;;;;;;5057788;28;19913;-73
2023/04/10 12:47:45;;;;;;;;;;;16.20;97.20;;;;;;5057524;28;19916;-76
2023/04/10 12:50:15;;;;;;;;;;;16.20;97.30;;;;;;5056355;28;19913;-77
2023/04/10 12:52:41;;;;;;;;;;;16.10;97.40;;;;;;5038601;28;20003;-76
2023/04/10 12:55:14;;;;;;;;;;;15.90;97.50;;;;;;5056279;28;19913;-76
2023/04/10 12:57:41;;;;;;;;;;;15.90;98.20;;;;;;5056296;28;19992;-76
2023/04/10 13:00:08;;;;;;;;;;;15.90;97.90;;;;;;5056521;28;19967;-76
2023/04/10 13:02:35;;;;;;;;;;;15.80;98.40;;;;;;5054886;28;19917;-76
2023/04/10 13:05:00;;;;;;;;;;;15.80;98.40;;;;;;5054746;28;19908;-76
2023/04/10 13:07:26;;;;;;;;;;;15.80;98.10;;;;;;5056305;28;19908;-76
2023/04/10 13:09:51;;;;;;;;;;;15.80;98.70;;;;;;5056062;28;20360;-76
2023/04/10 13:12:17;;;;;;;;;;;15.70;98.60;;;;;;5038170;28;20061;-76
2023/04/10 13:14:43;;;;;;;;;;;15.80;98.90;;;;;;5038112;28;19909;-76
2023/04/10 13:17:08;;;;;;;;;;;15.80;99.30;;;;;;5037881;28;19909;-76
2023/04/10 13:19:34;;;;;;;;;;;15.70;99.90;;;;;;5055829;28;19909;-76
2023/04/10 13:22:00;;;;;;;;;;;15.70;99.90;;;;;;5055820;28;19915;-76
2023/04/10 13:24:26;;;;;;;;;;;15.70;99.90;;;;;;5055775;28;19909;-76
2023/04/10 13:26:53;;;;;;;;;;;15.60;99.90;;;;;;5055841;28;19909;-76
2023/04/10 13:29:19;;;;;;;;;;;15.60;99.90;;;;;;5037836;28;20386;-76
2023/04/10 13:31:44;;;;;;;;;;;15.50;99.90;;;;;;5055787;28;19912;-76
2023/04/10 13:34:10;;;;;;;;;;;15.40;99.90;;;;;;5038323;28;20003;-73
2023/04/10 13:36:35;;;;;;;;;;;15.40;99.90;;;;;;5056774;28;19958;-74
2023/04/10 13:39:01;;;;;;;;;;;15.30;99.90;;;;;;5057093;28;20000;-73
2023/04/10 13:41:29;;;;;;;;;;;15.20;99.90;;;;;;5056899;28;19971;-73
2023/04/10 13:43:55;;;;;;;;;;;15.10;99.90;;;;;;5056963;28;19909;-73
2023/04/10 13:46:20;;;;;;;;;;;15.00;99.90;;;;;;5055730;28;19909;-76
2023/04/10 13:48:46;;;;;;;;;;;14.90;99.90;;;;;;5037565;28;19975;-76
2023/04/10 13:51:11;;;;;;;;;;;14.70;99.90;;;;;;5054961;28;19942;-76
2023/04/10 13:53:37;;;;;;;;;;;14.60;99.90;;;;;;5037392;28;20409;-76
2023/04/10 13:56:02;;;;;;;;;;;14.50;99.90;;;;;;5037484;28;19909;-77
2023/04/10 13:58:30;;;;;;;;;;;14.50;99.90;;;;;;5037937;28;19913;-76
2023/04/10 14:00:56;;;;;;;;;;;14.40;99.90;;;;;;5036947;28;20261;-76
2023/04/10 14:03:21;;;;;;;;;;;14.30;99.90;;;;;;5053917;28;19928;-76
2023/04/10 14:05:47;;;;;;;;;;;14.30;99.90;;;;;;5054965;28;19917;-76
2023/04/10 14:08:14;;;;;;;;;;;14.20;99.90;;;;;;5054707;28;19913;-76
2023/04/10 14:10:40;;;;;;;;;;;14.20;99.90;;;;;;5055590;28;19919;-76
2023/04/10 14:13:06;;;;;;;;;;;14.20;99.90;;;;;;5055103;28;19988;-76
2023/04/10 14:15:32;;;;;;;;;;;14.10;99.90;;;;;;5054845;28;20253;-76
2023/04/10 14:17:57;;;;;;;;;;;14.10;99.90;;;;;;5036864;28;20335;-76
2023/04/10 14:20:23;;;;;;;;;;;14.10;99.90;;;;;;5054766;28;19932;-76
2023/04/10 14:22:48;;;;;;;;;;;14.10;99.90;;;;;;5055174;28;19909;-76